Altoona, Wisconsin
Current Conditions -  °F | °C
As of 2:56 PM on Wednesday 17 Dec 2014 (Local Time) from KEAU Reporting Station
Overcast Overcast  
Wind Chill: 10°   Ceiling: 2300
Heat Index: 19°   Visibility: 10mi
Dew Point: 10°   Wind: 7mph
Humidity: 68%   Direction: 340°NNW
Pressure: 30.27"   Gusts: NA
Location:  44.81°N, 91.43°W
Report Text: KEAU 172056Z 34006KT 10SM OVC023 M07/M12 A3027 RMK AO2 SLP268 T10721122 53003
Loading
Personal Weather Stations






























Interactive Weather Map New forecast layout! Learn more

10-Day Weather Forecast

Advertisements
Track Severe Weather on mobile